Goodland, KS (67735)

12:23 PM MST on February 13, 2016 (GMT -0700)
City of Gld Backyard Station | | Change Station
CLOSE
Current Station
Personal Weather Station
Location: Goodland, KS
Elevation: 3711 ft
Nearby Weather Stations
Active Advisory: Special Statement

Elev 3711 ft 39.34 °N, 101.71 °W | Updated 3 minutes ago

Light Freezing Fog
Freezing Fog
27.5 °F
Feels Like 21 °F
N
6.3
Wind Variable Wind from SSE

Today
High -- | Low -- °F
--% Chance of Precip.
Yesterday
High -- | Low -- °F
Precip. -- in
Pressure 30.17 in
Visibility 0.5 miles
Clouds Overcast 200 ft
Windchill 21 °F
Dew Point 27 °F
Humidity 99%
Rainfall 0.00 in
Snow Depth Not available.
6:41 AM 5:20 PM
Waxing Crescent, 33% visible
METAR KGLD 131853Z AUTO 17014KT 1/2SM FZFG OVC002 M03/M03 A3009 RMK AO2 SLP216 I1001 T10281033
Pressure 30.17 in
Visibility 0.5 miles
Clouds Overcast 200 ft
Windchill 21 °F
Dew Point 27 °F
Humidity 99%
Rainfall 0.00 in
Snow Depth Not available.
6:41 AM 5:20 PM
Waxing Crescent, 33% visible
METAR KGLD 131853Z AUTO 17014KT 1/2SM FZFG OVC002 M03/M03 A3009 RMK AO2 SLP216 I1001 T10281033

10-Day Weather Forecast

Almanac

Astronomy

Feb. 13, 2016 Rise Set
Actual Time
Civil Twilight
Nautical Twilight
Astronomical Twilight
Moon
Length of Visible Light
Length of Day
Tomorrow will be .
, % of the Moon is Illuminated

Today's Extremes

State Highs State Lows

Community

WunderPhotos

Upload Photos

1,892,642 photos uploaded!

WunderBlog® & News

Nearby

Air Quality

  Air Quality AQ Index Pollutant
Not available.

Snow Depth

Station Depth Elevation

Earthquake Activity

City Distance Mag. Time & Date
Minimum magnitude displayed is 2.5.

Coastal Water Temperatures

Place Temperature

Stations

Nearby Weather Stations

Station Location Temp. Windchill Dew Point Humidity Wind Precip. Elev Updated Type
                   

Watches & Warnings

Special Statement
Issued: 12:14 PM CST Feb. 13, 2016 – National Weather Service

Freezing fog and light freezing drizzle continues across portions
of the region this morning. Visibilities have improved and this
trend should persist into the afternoon. However... visibilities
between two miles and as low as one half mile are still likely
over the next hour or two. In addition... a few icy spots are
possible on area roadways. Use caution if traveling.



1114 am MST Sat Feb 13 2016 /1214 PM CST Sat Feb 13 2016/

Freezing fog and light freezing drizzle continues across portions
of the region this morning. Visibilities have improved and this
trend should persist into the afternoon. However... visibilities
between two miles and as low as one half mile are still likely
over the next hour or two. In addition... a few icy spots are
possible on area roadways. Use caution if traveling.